• Join FlightAware (Why Join?)
  • Login
  • US Flag 
07:23AM EDT


 

Airport Tracker/Info


-or-


 

Live Flight TrackerFlight Track Log ✈ N400PU ✈ 24-Sep-2013 ✈ KIAD - KLAF

Flight Track Log - Related Links

Times and Time Zones

All times are in EDT time to prevent confusion due to time zone crossing. See the N400PU flight status page for this flight to view local times or setup timezone preferences in your user account.

Time Position Orientation Groundspeed Altitude Reporting Facility
EDT Latitude Longitude Course Direction KTS MPH feet Rate Location/Type
12:16PM 38.9333 -77.5333 243° Southwest 228 262 2,700  Level Potomac TRACON
12:17PM 38.9000 -77.6167 243° Southwest 262 302 4,800 2,100 Climbing Potomac TRACON
12:18PM 38.9000 -77.7167 270° West 274 315 7,000 2,220 Climbing Potomac TRACON
12:20PM 38.8983 -77.8642 269° West 291 335 10,600 2,340 Climbing Washington Center
12:21PM 38.9150 -77.9633 282° West 291 335 13,100 2,340 Climbing Washington Center
12:22PM 38.9339 -78.0681 283° West 296 341 15,400 2,160 Climbing Washington Center
12:23PM 38.9522 -78.1781 282° West 296 341 17,500 1,980 Climbing Washington Center
12:24PM 38.9581 -78.2906 274° West 307 353 19,500 1,980 Climbing Washington Center
12:25PM 38.9453 -78.4022 262° West 313 360 21,500 1,260 Climbing Washington Center
12:26PM 38.9339 -78.5272 263° West 338 389 22,000 1,080 Climbing Washington Center
12:27PM 38.9161 -78.6597 260° West 366 421 23,700 1,860 Climbing Washington Center
12:28PM 38.8836 -78.7839 251° West 372 428 25,800 1,620 Climbing Washington Center
12:29PM 38.8594 -78.9028 255° West 366 421 27,000 1,380 Climbing Washington Center
12:30PM 38.8392 -79.0325 259° West 366 421 28,600 1,440 Climbing Washington Center
12:31PM 38.8314 -79.1572 265° West 366 421 30,000 660 Climbing Washington Center
12:32PM 38.8694 -79.2817 291° West 359 413 30,000 180 Level Washington Center
12:33PM 38.9108 -79.4172 291° West 381 438 30,400 960 Climbing Washington Center
12:34PM 38.9486 -79.5419 291° West 387 445 32,000 780 Climbing Washington Center
12:35PM 38.9800 -79.6639 288° West 397 457 32,000  Level Washington Center
12:36PM 38.9981 -79.8039 279° West 397 457 32,000  Level Washington Center
12:37PM 39.0161 -79.9958 277° West 409 471 32,000  Level Indianapolis Center
12:38PM 39.0311 -80.1344 278° West 412 474 32,000 600 Level Indianapolis Center
12:39PM 39.0481 -80.2761 279° West 408 470 33,300 960 Climbing Indianapolis Center
12:40PM 39.0600 -80.4086 277° West 380 437 34,000 600 Climbing Indianapolis Center
12:41PM 39.0786 -80.5747 278° West 391 450 34,600 840 Climbing Indianapolis Center
12:42PM 39.1114 -80.7050 288° West 381 438 35,800 660 Climbing Indianapolis Center
12:43PM 39.1419 -80.8333 287° West 377 434 36,000 60 Climbing Indianapolis Center
12:44PM 39.1739 -80.9694 287° West 392 451 36,000  Level Indianapolis Center
12:45PM 39.2072 -81.1067 287° West 401 461 36,000  Level Indianapolis Center
12:46PM 39.2392 -81.2450 287° West 404 465 36,000  Level Indianapolis Center
12:47PM 39.2717 -81.3806 287° West 400 460 36,000  Level Indianapolis Center
12:48PM 39.3094 -81.5447 287° West 399 459 36,000  Level Indianapolis Center
12:49PM 39.3414 -81.6822 287° West 401 461 36,000  Level Indianapolis Center
12:50PM 39.3733 -81.8214 287° West 404 465 36,000  Level Indianapolis Center
12:51PM 39.4044 -81.9625 286° West 409 471 36,000  Level Indianapolis Center
12:52PM 39.4361 -82.1025 286° West 408 470 36,000  Level Indianapolis Center
12:53PM 39.4686 -82.2433 287° West 409 471 36,000  Level Indianapolis Center
12:54PM 39.5061 -82.4142 286° West 412 474 36,000  Level Indianapolis Center
12:55PM 39.5375 -82.5539 286° West 408 470 36,000  Level Indianapolis Center
12:56PM 39.5683 -82.6961 286° West 408 470 36,000  Level Indianapolis Center
12:58PM 39.5994 -82.8383 286° West 411 473 36,000  Level Indianapolis Center
12:59PM 39.6292 -82.9814 285° West 413 475 36,000 -360 Level Indianapolis Center
01:00PM 39.6603 -83.1194 286° West 404 465 35,300 -540 Descending Indianapolis Center
01:01PM 39.6978 -83.2858 286° West 402 463 35,000 -180 Descending Indianapolis Center
01:02PM 39.7267 -83.4281 285° West 407 468 35,000  Level Indianapolis Center
01:03PM 39.7578 -83.5725 286° West 413 475 35,000  Level Indianapolis Center
01:04PM 39.7889 -83.7167 286° West 415 478 35,000 -300 Level Indianapolis Center
01:05PM 39.8183 -83.8564 285° West 411 473 34,400 -1,140 Descending Indianapolis Center
01:06PM 39.8478 -83.9989 285° West 411 473 32,700 -1,860 Descending Indianapolis Center
01:07PM 39.8825 -84.1669 285° West 405 466 30,600 -1,320 Descending Indianapolis Center
01:08PM 39.9094 -84.3075 284° West 403 464 30,000 -780 Descending Indianapolis Center
01:09PM 39.9408 -84.4550 286° West 421 484 29,100 -1,020 Descending Indianapolis Center
01:10PM 39.9703 -84.6053 284° West 430 495 28,000 -540 Descending Indianapolis Center
01:11PM 40.0017 -84.7572 285° West 434 499 28,000  Level Indianapolis Center
01:12PM 40.0311 -84.9094 284° West 437 503 28,000 -240 Level Indianapolis Center
01:13PM 40.0689 -85.0969 285° West 445 512 27,600 -1,200 Descending Indianapolis Center
01:14PM 40.0989 -85.2489 285° West 439 505 25,600 -2,100 Descending Indianapolis Center
01:15PM 40.1272 -85.3975 284° West 430 495 23,300 -2,280 Descending Indianapolis Center
01:16PM 40.1569 -85.5483 285° West 430 495 21,000 -2,280 Descending Indianapolis Center
01:17PM 40.1847 -85.6961 284° West 427 491 18,700 -2,280 Descending Indianapolis Center
01:18PM 40.2117 -85.8375 284° West 415 478 16,400 -2,700 Descending Indianapolis Center
01:19PM 40.2350 -85.9661 283° West 381 438 13,900 -2,940 Descending Chicago Center
01:19PM 40.2464 -86.0292 283° West 359 413 12,600 -2,520 Descending Chicago Center
01:20PM 40.2583 -86.0894 285° West 359 413 11,300 -2,400 Descending Chicago Center
01:20PM 40.2697 -86.1528 283° West 326 375 10,200 -1,860 Descending Chicago Center
01:21PM 40.2786 -86.1997 284° West 322 371 9,400 -1,680 Descending Chicago Center
01:21PM 40.2856 -86.2436 282° West 272 313 8,700 -1,560 Descending Chicago Center
01:22PM 40.2964 -86.2944 286° West 284 327 7,800 -1,500 Descending Chicago Center
01:22PM 40.3011 -86.3372 278° West 266 306 7,200 -1,500 Descending Chicago Center
01:23PM 40.3131 -86.3914 286° West 276 318 6,300 -1,680 Descending Chicago Center
01:23PM 40.3144 -86.4333 273° West 274 315 5,700 -1,560 Descending Chicago Center
01:24PM 40.3203 -86.4922 277° West 279 321 4,700 -1,620 Descending Chicago Center
01:24PM 40.3239 -86.5267 278° West 272 313 4,100 -1,680 Descending Chicago Center
01:25PM 40.3336 -86.6078 279° West 275 316 3,000 -1,140 Descending Chicago Center
01:25PM 40.3347 -86.6283 274° West 267 307 3,000  Level Chicago Center
01:26PM 40.3464 -86.7031 282° West 271 312 3,000  Level Chicago Center
01:26PM 40.3458 -86.7217 268° West 267 307 3,000 -240 Level Chicago Center
01:27PM 40.3583 -86.7886 284° West 260 299 2,800 -480 Descending Chicago Center
01:27PM 40.3578 -86.7961 264° West 212 244 2,600 -420 Descending Chicago Center
01:28PM 40.3703 -86.8586 285° West 246 283 2,400 -240 Descending Chicago Center